Time;durP1;ratioP1;P1;durP2;ratioP2;P2;SDS_P1;SDS_P2;PMS_P1;PMS_P2;Temp;Humidity;BMP_temperature;BMP_pressure;BME280_temperature;BME280_humidity;BME280_pressure;Samples;Min_cycle;Max_cycle;Signal;HPM_P1;HPM_P2
2022/07/31 13:05:11;;;;;;;3.40;3.00;;;;;;;27.35;46.05;96810.85;107018;1285;597575;-79
2022/07/31 13:07:40;;;;;;;3.70;3.30;;;;;;;27.40;46.89;96807.10;109427;1257;57724;-81
2022/07/31 13:10:09;;;;;;;3.50;2.80;;;;;;;27.29;46.77;96807.42;109753;1254;57632;-80
2022/07/31 13:12:49;;;;;;;3.10;2.80;;;;;;;27.05;47.38;96803.71;109790;1256;69171;-80
2022/07/31 13:15:22;;;;;;;5.00;3.00;;;;;;;27.02;47.19;96799.21;109790;1254;68598;-80
2022/07/31 13:17:50;;;;;;;3.30;2.90;;;;;;;27.08;47.62;96795.03;109314;1254;421709;-80
2022/07/31 13:20:19;;;;;;;4.80;3.40;;;;;;;27.22;46.71;96788.75;109659;1253;57614;-79
2022/07/31 13:22:48;;;;;;;3.40;3.10;;;;;;;27.34;46.93;96785.85;109697;1254;57696;-80
2022/07/31 13:25:18;;;;;;;3.40;2.70;;;;;;;27.50;47.30;96783.48;109812;1253;68327;-80
2022/07/31 13:27:48;;;;;;;3.40;3.10;;;;;;;27.67;47.31;96781.77;109745;1253;69277;-81
2022/07/31 13:30:16;;;;;;;3.40;3.10;;;;;;;27.74;47.00;96785.01;109742;1254;68567;-80
2022/07/31 13:32:45;;;;;;;3.40;2.70;;;;;;;27.64;46.46;96782.45;109714;1253;58215;-80
2022/07/31 13:35:14;;;;;;;3.10;2.80;;;;;;;27.48;46.12;96787.48;109758;1252;58019;-75
2022/07/31 13:37:56;;;;;;;2.80;2.50;;;;;;;27.39;46.49;96785.61;109778;1252;69856;-80
2022/07/31 13:43:14;;;;;;;4.90;3.30;;;;;;;27.31;44.87;96790.13;110654;1250;69421;-78
2022/07/31 13:45:43;;;;;;;2.60;2.10;;;;;;;27.37;44.20;96788.58;110124;1250;58136;-78
2022/07/31 13:48:12;;;;;;;3.40;3.00;;;;;;;27.40;44.71;96790.63;110514;1248;58033;-76
2022/07/31 13:50:41;;;;;;;2.80;2.50;;;;;;;27.55;44.44;96783.55;110324;1250;69004;-79
2022/07/31 13:53:09;;;;;;;2.70;2.40;;;;;;;27.68;44.44;96785.18;109837;1251;68403;-78
2022/07/31 13:55:38;;;;;;;3.90;3.20;;;;;;;27.75;44.28;96788.73;109917;1251;69250;-79
2022/07/31 13:58:07;;;;;;;3.60;2.80;;;;;;;27.79;43.99;96784.47;109928;1249;58090;-80
2022/07/31 14:00:36;;;;;;;3.10;2.80;;;;;;;27.94;43.59;96777.27;109942;1250;58088;-79
2022/07/31 14:03:05;;;;;;;3.00;2.70;;;;;;;27.94;43.40;96779.86;109993;1250;69311;-80
2022/07/31 14:05:34;;;;;;;3.30;3.00;;;;;;;28.05;42.98;96779.38;109965;1250;69596;-80
2022/07/31 14:08:08;;;;;;;2.40;2.00;;;;;;;28.18;43.00;96777.98;109871;1250;69435;-81
2022/07/31 14:10:56;;;;;;;;;;;;;;;28.21;42.21;96782.71;109908;1251;58120;-81
2022/07/31 14:13:26;;;;;;;3.80;2.80;;;;;;;27.96;42.31;96783.64;110097;1251;58087;-80
2022/07/31 14:15:55;;;;;;;3.20;2.70;;;;;;;28.19;42.69;96785.20;110278;1250;71909;-81
2022/07/31 14:18:24;;;;;;;;;;;;;;;28.37;42.65;96788.42;110012;1251;69384;-78
2022/07/31 14:20:52;;;;;;;3.40;3.10;;;;;;;28.56;42.72;96788.23;110500;1247;69503;-82
2022/07/31 14:23:21;;;;;;;3.20;2.60;;;;;;;28.56;43.62;96786.91;110338;1247;58069;-80
2022/07/31 14:26:04;;;;;;;4.30;2.80;;;;;;;28.58;41.92;96779.58;110348;1247;58104;-79
2022/07/31 14:28:32;;;;;;;3.10;2.80;;;;;;;28.34;42.02;96777.11;110328;1247;69035;-80
2022/07/31 14:31:01;;;;;;;2.70;2.50;;;;;;;28.23;42.56;96777.05;110276;1248;69132;-80
2022/07/31 14:33:30;;;;;;;;;;;;;;;28.19;42.97;96777.35;110222;1247;68462;-79
2022/07/31 14:35:58;;;;;;;3.00;2.70;;;;;;;28.07;43.15;96780.02;110238;1247;58137;-78
2022/07/31 14:38:27;;;;;;;3.90;2.10;;;;;;;28.04;42.11;96772.48;110226;1247;58091;-81
2022/07/31 14:40:56;;;;;;;4.10;2.40;;;;;;;27.99;42.39;96769.73;110328;1247;70338;-80
2022/07/31 14:43:24;;;;;;;3.30;2.70;;;;;;;27.75;42.81;96768.00;110579;1246;69272;-77
2022/07/31 14:45:53;;;;;;;2.90;2.50;;;;;;;27.41;43.47;96767.60;110594;1247;69473;-78
2022/07/31 14:48:22;;;;;;;2.70;2.40;;;;;;;27.11;44.49;96767.70;109918;1247;58148;-80
2022/07/31 14:50:50;;;;;;;4.10;2.70;;;;;;;26.87;44.31;96764.73;110195;1247;58080;-79
2022/07/31 14:53:19;;;;;;;3.00;2.40;;;;;;;26.49;44.91;96765.20;109892;1247;69739;-79
2022/07/31 14:55:47;;;;;;;3.40;3.10;;;;;;;26.25;45.77;96766.96;109908;1247;68011;-78
2022/07/31 14:58:16;;;;;;;2.40;2.20;;;;;;;25.99;46.05;96767.00;110811;1247;69448;-77
2022/07/31 15:00:45;;;;;;;3.00;2.70;;;;;;;25.86;46.53;96762.55;110274;1247;58152;-77
2022/07/31 15:03:13;;;;;;;2.80;2.30;;;;;;;25.77;47.08;96758.23;110283;1246;58082;-79
2022/07/31 15:05:42;;;;;;;4.60;2.70;;;;;;;25.68;48.54;96756.65;110235;1247;69763;-78
2022/07/31 15:08:31;;;;;;;3.90;2.90;;;;;;;25.71;48.48;96755.89;110323;1246;69183;-78
2022/07/31 15:11:00;;;;;;;2.70;2.40;;;;;;;25.88;47.57;96759.88;110264;1247;68517;-79
2022/07/31 15:13:29;;;;;;;;;;;;;;;25.94;47.59;96761.86;110275;1247;58171;-78
2022/07/31 15:15:58;;;;;;;2.90;2.60;;;;;;;26.09;47.36;96761.00;110251;1247;58091;-78
2022/07/31 15:18:26;;;;;;;4.10;2.50;;;;;;;26.06;46.47;96762.67;110285;1247;70337;-78
2022/07/31 15:20:55;;;;;;;2.40;2.10;;;;;;;25.87;47.18;96762.36;110201;1247;68422;-78
2022/07/31 15:23:23;;;;;;;3.20;2.70;;;;;;;25.78;46.91;96761.89;110210;1247;68640;-78
2022/07/31 15:26:03;;;;;;;2.60;2.40;;;;;;;25.64;48.25;96763.81;110250;1247;58050;-77
2022/07/31 15:28:33;;;;;;;2.70;2.40;;;;;;;25.63;48.22;96767.26;110244;1247;58095;-79
2022/07/31 15:31:02;;;;;;;3.40;3.10;;;;;;;25.56;48.01;96787.33;110254;1246;69156;-79
2022/07/31 15:33:31;;;;;;;4.30;3.10;;;;;;;25.20;49.39;96792.89;110343;1247;69064;-78
2022/07/31 15:36:01;;;;;;;4.50;3.70;;;;;;;24.68;50.80;96792.17;110306;1247;69195;-78
2022/07/31 15:38:30;;;;;;;5.00;4.30;;;;;;;24.19;52.08;96799.58;110328;1247;58083;-79
2022/07/31 15:41:00;;;;;;;5.00;3.40;;;;;;;23.71;53.57;96805.75;110262;1246;58049;-77
2022/07/31 15:43:30;;;;;;;3.60;3.30;;;;;;;23.36;55.21;96800.79;110190;1247;69593;-78
2022/07/31 15:46:09;;;;;;;6.70;3.70;;;;;;;23.17;59.10;96811.42;110387;1247;70023;-78
2022/07/31 15:48:37;;;;;;;7.60;3.70;;;;;;;22.57;63.92;96813.73;110572;1247;69489;-77
2022/07/31 15:51:08;;;;;;;4.30;3.50;;;;;;;21.92;67.25;96803.36;110362;1247;58569;-78
2022/07/31 15:53:36;;;;;;;5.30;3.40;;;;;;;21.32;69.15;96800.35;110234;1247;58029;-71
2022/07/31 15:56:06;;;;;;;5.30;3.60;;;;;;;21.00;70.69;96808.45;110282;1247;69757;-71
2022/07/31 15:58:35;;;;;;;5.60;3.90;;;;;;;20.72;72.00;96817.85;110111;1247;68689;-70
2022/07/31 16:01:05;;;;;;;5.50;4.00;;;;;;;20.44;73.76;96824.40;110155;1247;69909;-71
2022/07/31 16:03:35;;;;;;;4.50;4.10;;;;;;;20.36;73.77;96839.73;110133;1247;58123;-72
2022/07/31 16:06:23;;;;;;;4.80;3.80;;;;;;;20.31;73.48;96844.91;110225;1247;58134;-73
2022/07/31 16:09:04;;;;;;;5.30;4.20;;;;;;;20.29;75.10;96854.40;110315;1247;70233;-71
2022/07/31 16:11:38;;;;;;;4.80;4.10;;;;;;;20.30;75.14;96862.02;110305;1247;69441;-74
2022/07/31 16:14:28;;;;;;;5.10;4.30;;;;;;;20.26;74.40;96858.73;110135;1247;68649;-72
2022/07/31 16:16:59;;;;;;;5.30;4.20;;;;;;;20.10;73.82;96863.15;110739;1247;58138;-73
2022/07/31 16:19:29;;;;;;;5.20;4.30;;;;;;;19.88;74.82;96861.99;111135;1247;58085;-71
2022/07/31 16:22:02;;;;;;;7.10;4.60;;;;;;;19.63;76.63;96865.34;110306;1247;70675;-72
2022/07/31 16:24:33;;;;;;;6.30;5.30;;;;;;;19.40;76.73;96871.50;110140;1247;69169;-74
2022/07/31 16:27:02;;;;;;;5.20;4.30;;;;;;;19.22;78.57;96867.79;110189;1246;69228;-72
2022/07/31 16:29:33;;;;;;;6.90;5.00;;;;;;;19.10;77.98;96865.79;110399;1247;58084;-71
2022/07/31 16:32:24;;;;;;;5.90;5.30;;;;;;;18.97;78.29;96865.89;110272;1247;57997;-72
2022/07/31 16:34:53;;;;;;;5.60;4.90;;;;;;;18.84;78.98;96867.58;110344;1247;69030;-72
2022/07/31 16:37:28;;;;;;;7.70;5.10;;;;;;;18.78;80.19;96875.67;110201;1247;68441;-73
2022/07/31 16:40:20;;;;;;;6.30;5.00;;;;;;;18.74;79.51;96880.67;110217;1247;68906;-71
2022/07/31 16:43:04;;;;;;;5.20;4.70;;;;;;;18.70;79.92;96885.10;110226;1247;58039;-71
2022/07/31 16:45:56;;;;;;;5.50;4.40;;;;;;;18.70;78.68;96894.67;110257;1247;58082;-72
2022/07/31 16:48:25;;;;;;;4.90;4.40;;;;;;;18.71;79.67;96892.05;110313;1246;70562;-70
2022/07/31 16:50:55;;;;;;;6.40;4.90;;;;;;;18.76;78.48;96893.77;110251;1247;69412;-71
2022/07/31 16:53:25;;;;;;;;;;;;;;;18.82;78.81;96899.80;110221;1247;68028;-69
2022/07/31 16:56:15;;;;;;;6.50;5.80;;;;;;;18.91;78.06;96902.16;110151;1247;58123;-70
2022/07/31 16:58:44;;;;;;;4.80;4.10;;;;;;;18.94;79.33;96896.50;110230;1247;58075;-71
2022/07/31 17:01:13;;;;;;;5.10;4.40;;;;;;;18.97;78.97;96895.84;110476;1247;69737;-68
2022/07/31 17:04:03;;;;;;;;;;;;;;;19.00;81.04;96896.86;110500;1247;70079;-68
2022/07/31 17:06:35;;;;;;;5.20;4.70;;;;;;;19.02;81.47;96895.03;110322;1247;70027;-69
2022/07/31 17:09:09;;;;;;;4.70;4.20;;;;;;;19.07;81.55;96895.35;110224;1247;58119;-69
2022/07/31 17:11:51;;;;;;;4.60;4.10;;;;;;;19.11;80.40;96893.80;110173;1247;58100;-67
2022/07/31 17:14:24;;;;;;;5.80;4.80;;;;;;;19.13;79.32;96894.48;110085;1247;69959;-68
2022/07/31 17:16:54;;;;;;;5.60;4.40;;;;;;;19.13;78.69;96897.46;110262;1245;69912;-71
2022/07/31 17:19:27;;;;;;;6.20;5.40;;;;;;;19.09;78.57;96898.45;110170;1247;69300;-68
2022/07/31 17:22:11;;;;;;;6.80;5.30;;;;;;;19.02;78.94;96898.69;110276;1247;58893;-68
2022/07/31 17:24:49;;;;;;;5.90;5.00;;;;;;;18.96;79.17;96899.94;110244;1247;58873;-68
2022/07/31 17:27:20;;;;;;;5.90;5.30;;;;;;;18.87;79.84;96901.19;110209;1247;69827;-67
2022/07/31 17:29:49;;;;;;;6.00;5.10;;;;;;;18.75;81.24;96900.41;110172;1246;69423;-68
2022/07/31 17:32:18;;;;;;;5.90;5.30;;;;;;;18.65;80.72;96912.45;110114;1247;68339;-68
2022/07/31 17:34:48;;;;;;;6.50;5.80;;;;;;;18.55;81.42;96919.45;110107;1247;58922;-67
2022/07/31 17:37:17;;;;;;;4.90;4.40;;;;;;;18.44;84.25;96920.63;110119;1247;58866;-68
2022/07/31 17:39:47;;;;;;;5.90;4.90;;;;;;;18.35;82.98;96924.50;110062;1247;70528;-70
2022/07/31 17:42:16;;;;;;;4.60;4.10;;;;;;;18.26;83.21;96931.15;110110;1247;70279;-69
2022/07/31 17:44:49;;;;;;;5.80;5.30;;;;;;;18.20;83.42;96934.33;110026;1247;70261;-69
2022/07/31 17:47:24;;;;;;;6.70;5.20;;;;;;;18.11;84.85;96938.34;110072;1247;58900;-70
2022/07/31 17:49:53;;;;;;;7.00;5.10;;;;;;;17.99;85.86;96941.39;110049;1247;58811;-68
2022/07/31 17:52:23;;;;;;;5.10;4.60;;;;;;;17.92;85.07;96945.74;110181;1247;70787;-70
2022/07/31 17:54:54;;;;;;;8.50;5.70;;;;;;;17.83;86.13;96941.33;109990;1247;69482;-70
2022/07/31 17:57:26;;;;;;;7.10;6.40;;;;;;;17.78;86.56;96944.77;110037;1247;69322;-69
2022/07/31 17:59:56;;;;;;;7.30;6.60;;;;;;;17.73;84.92;96942.48;110256;1246;58949;-70
2022/07/31 18:02:26;;;;;;;7.70;5.50;;;;;;;17.69;85.35;96948.17;110391;1247;58870;-70
2022/07/31 18:04:55;;;;;;;5.70;5.10;;;;;;;17.65;85.92;96950.04;110132;1247;69744;-71
2022/07/31 18:07:24;;;;;;;5.90;5.00;;;;;;;17.57;86.96;96949.77;110007;1247;68781;-70
2022/07/31 18:09:55;;;;;;;6.50;5.80;;;;;;;17.50;87.20;96951.48;110098;1247;67803;-69
2022/07/31 18:12:27;;;;;;;7.00;5.90;;;;;;;17.44;87.73;96950.34;110017;1247;58928;-70
2022/07/31 18:15:16;;;;;;;7.40;5.90;;;;;;;17.37;88.74;96954.64;110203;1247;58951;-70
2022/07/31 18:17:48;;;;;;;7.20;6.50;;;;;;;17.31;88.12;96951.77;110124;1245;69933;-71
2022/07/31 18:20:23;;;;;;;6.50;5.40;;;;;;;17.26;88.85;96952.09;110054;1247;69333;-70
2022/07/31 18:22:52;;;;;;;6.30;5.50;;;;;;;17.21;89.09;96953.67;110095;1247;69476;-70
2022/07/31 18:25:21;;;;;;;5.80;5.20;;;;;;;17.15;88.99;96954.82;110073;1247;58866;-71
2022/07/31 18:27:51;;;;;;;5.90;5.30;;;;;;;17.11;86.93;96956.34;110014;1247;58886;-70
2022/07/31 18:30:20;;;;;;;6.00;5.40;;;;;;;17.06;85.45;96954.75;110060;1247;70718;-70
2022/07/31 18:32:48;;;;;;;7.50;5.90;;;;;;;17.02;83.98;96957.89;110217;1246;69533;-70
2022/07/31 18:35:17;;;;;;;6.70;6.00;;;;;;;16.97;83.31;96956.79;110095;1247;69849;-70
2022/07/31 18:37:46;;;;;;;6.60;5.80;;;;;;;16.94;82.98;96957.08;110116;1247;58923;-70
2022/07/31 18:40:15;;;;;;;6.40;5.40;;;;;;;16.93;84.28;96962.89;110160;1247;58906;-71
2022/07/31 18:42:45;;;;;;;6.80;6.10;;;;;;;16.92;84.27;96959.49;110087;1247;70701;-71
2022/07/31 18:45:15;;;;;;;7.00;5.60;;;;;;;16.90;87.49;96965.09;109986;1247;68913;-71
2022/07/31 18:47:44;;;;;;;7.50;6.80;;;;;;;16.89;89.21;96966.44;110130;1247;68696;-70
2022/07/31 18:50:15;;;;;;;7.20;6.40;;;;;;;16.88;90.78;96970.84;110182;1247;58971;-70
2022/07/31 18:53:04;;;;;;;6.90;6.20;;;;;;;16.87;91.28;96975.30;110165;1246;58836;-70
2022/07/31 18:55:33;;;;;;;6.10;5.60;;;;;;;16.81;90.61;96974.13;109789;1247;69913;-72
2022/07/31 18:58:02;;;;;;;7.00;5.70;;;;;;;16.78;91.36;96974.41;110033;1247;68576;-70
2022/07/31 19:00:31;;;;;;;8.30;6.90;;;;;;;16.76;92.43;96973.03;110105;1247;70098;-70
2022/07/31 19:03:00;;;;;;;7.00;5.90;;;;;;;16.75;93.30;96969.54;110198;1247;58897;-71
2022/07/31 19:05:29;;;;;;;6.70;5.90;;;;;;;16.73;92.65;96974.81;110281;1247;58855;-70
2022/07/31 19:07:58;;;;;;;7.40;5.90;;;;;;;16.72;92.75;96977.70;110107;1246;71291;-72
2022/07/31 19:10:28;;;;;;;6.60;6.00;;;;;;;16.72;92.95;96982.27;110089;1248;70004;-72
2022/07/31 19:12:59;;;;;;;5.70;5.10;;;;;;;16.72;93.22;96984.00;110121;1247;69932;-71
2022/07/31 19:15:28;;;;;;;5.40;4.90;;;;;;;16.73;92.86;96982.15;110053;1247;58932;-71
2022/07/31 19:17:58;;;;;;;;;;;;;;;16.75;92.82;96984.98;110076;1247;59012;-71
2022/07/31 19:20:31;;;;;;;10.30;9.20;;;;;;;16.74;92.52;96991.21;110292;1247;71299;-72
2022/07/31 19:23:21;;;;;;;9.40;8.50;;;;;;;16.69;90.86;96993.34;110196;1247;68361;-73
2022/07/31 19:25:51;;;;;;;10.90;8.30;;;;;;;16.65;92.55;96994.42;110363;1247;68885;-71
2022/07/31 19:28:32;;;;;;;7.90;7.10;;;;;;;16.66;95.27;96996.33;110182;1246;58915;-71
2022/07/31 19:31:01;;;;;;;8.40;7.60;;;;;;;16.69;95.69;97003.70;110215;1247;58895;-70
2022/07/31 19:33:30;;;;;;;10.60;8.60;;;;;;;16.71;95.64;97004.14;109899;1248;70301;-72
2022/07/31 19:35:59;;;;;;;11.10;10.00;;;;;;;16.70;94.21;97008.29;110130;1247;68673;-70
2022/07/31 19:38:31;;;;;;;10.10;9.10;;;;;;;16.68;92.92;97008.91;110215;1247;69545;-71
2022/07/31 19:41:01;;;;;;;11.50;10.10;;;;;;;16.67;93.40;97010.45;110139;1247;58939;-71
2022/07/31 19:43:30;;;;;;;10.50;9.30;;;;;;;16.64;93.43;97011.82;110097;1247;58903;-71
2022/07/31 19:45:59;;;;;;;10.90;9.80;;;;;;;16.62;93.22;97015.47;109831;1248;71304;-70
2022/07/31 19:48:42;;;;;;;9.00;7.60;;;;;;;16.61;94.13;97010.89;110088;1247;69571;-70
2022/07/31 19:51:13;;;;;;;9.20;8.20;;;;;;;16.64;96.38;97009.85;110408;1246;68702;-71
2022/07/31 19:53:43;;;;;;;12.00;9.60;;;;;;;16.72;97.78;97010.30;110265;1247;58902;-70
2022/07/31 19:56:13;;;;;;;10.70;9.40;;;;;;;16.77;96.62;97005.41;110183;1247;58893;-71
2022/07/31 19:58:49;;;;;;;8.10;7.30;;;;;;;16.81;96.63;97005.09;109795;1248;69988;-70
2022/07/31 20:01:19;;;;;;;7.60;6.60;;;;;;;16.86;96.48;97006.36;110029;1247;69333;-70
2022/07/31 20:03:49;;;;;;;9.10;7.60;;;;;;;16.91;96.59;97011.13;109812;1247;67980;-70
2022/07/31 20:06:18;;;;;;;9.00;8.10;;;;;;;16.94;97.72;97006.24;109948;1247;58891;-68
2022/07/31 20:08:47;;;;;;;8.30;7.50;;;;;;;16.97;97.70;97004.02;110117;1247;58891;-71
2022/07/31 20:11:16;;;;;;;8.00;7.20;;;;;;;16.98;95.88;97006.00;110118;1247;70998;-68
2022/07/31 20:13:45;;;;;;;10.30;9.20;;;;;;;17.01;96.62;97007.19;110158;1247;69999;-70
2022/07/31 20:16:14;;;;;;;9.40;8.50;;;;;;;17.03;95.67;97004.18;110046;1247;69877;-71
2022/07/31 20:18:45;;;;;;;8.40;7.60;;;;;;;17.05;94.70;97000.50;110099;1247;58884;-70
2022/07/31 20:21:14;;;;;;;9.10;8.20;;;;;;;17.08;94.66;96999.15;110182;1247;58856;-68
2022/07/31 20:23:43;;;;;;;10.80;9.60;;;;;;;17.11;96.13;96997.73;110108;1247;70698;-71
2022/07/31 20:26:16;;;;;;;9.90;7.60;;;;;;;17.14;96.94;96994.08;110076;1247;69436;-70
2022/07/31 20:28:45;;;;;;;8.70;7.50;;;;;;;17.17;96.25;96997.45;110067;1247;70167;-70
2022/07/31 20:31:14;;;;;;;8.30;6.00;;;;;;;17.17;95.13;96997.78;110112;1247;58867;-69
2022/07/31 20:33:49;;;;;;;5.60;5.00;;;;;;;17.17;93.02;97002.20;110123;1247;58918;-71
2022/07/31 20:36:26;;;;;;;8.00;7.20;;;;;;;17.16;93.10;96999.95;109772;1247;69297;-70
2022/07/31 20:38:57;;;;;;;7.40;6.70;;;;;;;17.14;94.70;97000.73;110068;1248;70025;-70
2022/07/31 20:41:27;;;;;;;12.40;10.50;;;;;;;17.10;95.09;97001.17;110049;1247;69504;-71
2022/07/31 20:43:56;;;;;;;11.10;9.80;;;;;;;17.03;95.61;97002.14;109869;1248;58909;-71
2022/07/31 20:46:26;;;;;;;10.70;9.30;;;;;;;17.01;96.53;96999.11;110047;1247;58847;-70
2022/07/31 20:48:59;;;;;;;10.70;9.50;;;;;;;16.98;96.47;96999.27;110110;1247;70553;-69
2022/07/31 20:51:28;;;;;;;11.60;9.40;;;;;;;16.95;95.62;97000.70;110096;1247;69429;-71
2022/07/31 20:53:58;;;;;;;11.50;10.00;;;;;;;16.91;96.93;96998.77;110276;1247;68609;-71
2022/07/31 20:56:28;;;;;;;9.90;8.90;;;;;;;16.90;97.52;96998.17;110169;1247;58859;-70
2022/07/31 20:58:57;;;;;;;9.80;7.90;;;;;;;16.90;98.07;96998.34;110109;1247;58950;-72
2022/07/31 21:01:26;;;;;;;15.20;12.30;;;;;;;16.90;97.99;96992.92;110111;1247;71549;-71
2022/07/31 21:03:55;;;;;;;13.70;12.30;;;;;;;16.88;96.91;96995.38;110174;1247;69194;-69
2022/07/31 21:06:24;;;;;;;10.60;9.00;;;;;;;16.84;95.30;96993.36;110156;1247;70129;-70
2022/07/31 21:08:53;;;;;;;8.00;7.10;;;;;;;16.84;94.53;96995.54;110043;1247;58872;-70
2022/07/31 21:11:22;;;;;;;9.30;8.30;;;;;;;16.85;94.09;96995.77;110091;1247;58938;-70
2022/07/31 21:14:01;;;;;;;9.40;8.40;;;;;;;16.88;96.04;97000.39;109988;1247;70778;-70
2022/07/31 21:16:30;;;;;;;11.00;9.80;;;;;;;16.89;95.04;97001.78;110032;1247;69409;-71
2022/07/31 21:18:59;;;;;;;10.70;9.60;;;;;;;16.92;97.69;97001.02;110202;1247;67546;-71
2022/07/31 21:21:28;;;;;;;9.90;7.70;;;;;;;16.94;98.98;97000.92;109812;1248;59028;-71
2022/07/31 21:23:59;;;;;;;;;;;;;;;16.95;99.08;96998.02;110080;1248;58836;-70
2022/07/31 21:26:31;;;;;;;7.70;6.80;;;;;;;16.95;99.05;97001.92;110120;1247;70532;-70
2022/07/31 21:29:00;;;;;;;8.70;6.70;;;;;;;16.94;98.79;97002.39;110241;1247;68436;-71
2022/07/31 21:31:29;;;;;;;10.10;8.90;;;;;;;16.94;99.53;97002.89;110076;1247;68508;-70
2022/07/31 21:33:58;;;;;;;9.40;8.30;;;;;;;16.94;99.68;97002.36;110150;1247;59008;-71
2022/07/31 21:36:28;;;;;;;9.10;8.00;;;;;;;16.92;99.29;97000.25;110124;1247;59106;-70
2022/07/31 21:38:57;;;;;;;9.30;7.40;;;;;;;16.92;99.04;97001.54;110165;1247;70634;-69
2022/07/31 21:41:27;;;;;;;8.80;7.60;;;;;;;16.92;98.26;96998.76;110105;1248;68534;-69
2022/07/31 21:43:56;;;;;;;7.90;7.10;;;;;;;16.92;98.51;96998.59;110072;1247;70121;-72
2022/07/31 21:46:37;;;;;;;8.30;7.50;;;;;;;16.91;97.48;96997.73;110070;1247;58932;-72
2022/07/31 21:49:11;;;;;;;11.40;9.80;;;;;;;16.94;99.27;96997.89;110127;1247;58888;-71
2022/07/31 21:51:40;;;;;;;12.70;9.80;;;;;;;16.97;100.00;96996.27;110076;1247;70128;-70
2022/07/31 21:54:12;;;;;;;8.60;7.70;;;;;;;16.98;99.92;96999.14;110149;1247;69190;-72
2022/07/31 21:56:42;;;;;;;9.10;8.10;;;;;;;16.98;98.32;96998.38;110163;1247;69252;-74
2022/07/31 21:59:12;;;;;;;9.50;8.50;;;;;;;17.00;99.37;96998.58;110141;1247;58872;-74
2022/07/31 22:01:41;;;;;;;10.60;9.10;;;;;;;17.00;100.00;96997.17;110189;1247;58862;-72
2022/07/31 22:04:29;;;;;;;11.50;9.60;;;;;;;16.98;99.96;96995.64;110103;1247;70278;-72
2022/07/31 22:09:49;;;;;;;11.00;8.70;;;;;;;16.95;99.59;96992.62;110036;1247;69863;-72
2022/07/31 22:12:18;;;;;;;9.50;8.30;;;;;;;16.94;99.23;96990.08;110153;1247;58959;-71
2022/07/31 22:14:48;;;;;;;;;;;;;;;16.93;99.61;96989.79;110161;1247;58875;-71
2022/07/31 22:17:17;;;;;;;7.80;6.90;;;;;;;16.92;99.17;96989.92;110276;1247;70761;-71
2022/07/31 22:19:46;;;;;;;9.10;7.40;;;;;;;16.92;98.68;96990.77;110083;1247;70017;-72
2022/07/31 22:22:16;;;;;;;11.90;10.00;;;;;;;16.92;99.12;96990.10;110065;1247;68460;-72
2022/07/31 22:24:45;;;;;;;11.30;10.10;;;;;;;16.90;99.71;96992.05;110035;1247;58896;-73
2022/07/31 22:30:08;;;;;;;12.10;10.00;;;;;;;16.84;98.36;96989.17;110192;1247;70798;-71
2022/07/31 22:32:42;;;;;;;11.20;8.00;;;;;;;16.82;97.40;96989.52;110211;1247;68300;-71
2022/07/31 22:35:12;;;;;;;12.30;10.80;;;;;;;16.81;96.93;96987.20;110039;1246;68775;-72
2022/07/31 22:37:41;;;;;;;10.50;8.60;;;;;;;16.79;96.27;96987.93;110122;1247;58955;-72
2022/07/31 22:40:11;;;;;;;9.50;8.60;;;;;;;16.78;95.83;96990.83;110084;1247;58905;-72
2022/07/31 22:42:41;;;;;;;11.80;9.80;;;;;;;16.77;95.55;96988.66;110102;1247;70830;-73
2022/07/31 22:45:24;;;;;;;9.90;8.70;;;;;;;16.76;95.51;96988.41;109987;1247;69506;-71
2022/07/31 22:47:55;;;;;;;10.40;9.30;;;;;;;16.76;97.60;96988.41;110149;1247;69533;-71
2022/07/31 22:50:24;;;;;;;10.90;9.80;;;;;;;16.76;98.83;96986.59;109999;1247;58892;-71
2022/07/31 22:52:54;;;;;;;13.60;12.00;;;;;;;16.77;99.55;96984.55;110093;1247;58824;-71
2022/07/31 22:55:23;;;;;;;13.00;10.80;;;;;;;16.75;97.82;96986.04;110022;1247;70066;-73
2022/07/31 22:57:52;;;;;;;12.80;11.50;;;;;;;16.72;97.55;96985.98;110272;1247;67712;-72
2022/07/31 23:00:21;;;;;;;10.90;9.60;;;;;;;16.68;97.58;96983.73;110056;1247;69473;-72
2022/07/31 23:02:50;;;;;;;10.40;9.00;;;;;;;16.67;99.69;96982.51;110146;1246;58943;-74
2022/07/31 23:05:20;;;;;;;9.90;8.80;;;;;;;16.68;100.00;96983.73;110179;1247;58819;-72
2022/07/31 23:07:49;;;;;;;10.90;9.30;;;;;;;16.70;100.00;96983.16;110128;1247;69010;-72
2022/07/31 23:10:19;;;;;;;10.80;9.40;;;;;;;16.74;100.00;96981.91;110109;1247;68603;-72
2022/07/31 23:12:48;;;;;;;8.70;7.70;;;;;;;16.75;100.00;96978.12;110122;1247;68666;-72
2022/07/31 23:15:18;;;;;;;8.10;5.40;;;;;;;16.76;100.00;96979.40;110030;1247;58942;-71
2022/07/31 23:17:47;;;;;;;9.90;8.40;;;;;;;16.77;100.00;96982.86;110069;1247;58932;-71
2022/07/31 23:20:17;;;;;;;13.00;10.60;;;;;;;16.75;100.00;96980.89;110205;1247;70060;-72
2022/07/31 23:22:46;;;;;;;11.50;10.30;;;;;;;16.72;100.00;96982.58;110105;1247;69390;-71
2022/07/31 23:25:16;;;;;;;12.10;9.00;;;;;;;16.71;100.00;96983.25;110071;1247;68808;-71
2022/07/31 23:27:45;;;;;;;9.50;7.80;;;;;;;16.70;100.00;96985.26;110041;1247;58893;-73
2022/07/31 23:30:14;;;;;;;10.30;7.70;;;;;;;16.71;100.00;96985.20;110081;1247;58949;-71
2022/07/31 23:32:44;;;;;;;10.70;9.00;;;;;;;16.72;100.00;96981.81;110094;1247;70594;-71
2022/07/31 23:35:13;;;;;;;11.10;8.40;;;;;;;16.72;100.00;96982.67;110107;1247;69983;-71
2022/07/31 23:37:43;;;;;;;12.00;10.80;;;;;;;16.70;100.00;96982.47;110038;1247;69491;-71
2022/07/31 23:40:13;;;;;;;12.70;11.00;;;;;;;16.65;98.39;96978.77;110044;1247;58879;-71
2022/07/31 23:42:43;;;;;;;10.70;9.60;;;;;;;16.58;98.51;96983.37;110012;1248;58837;-72
2022/07/31 23:45:16;;;;;;;8.30;7.50;;;;;;;16.53;97.44;96980.88;110033;1247;68991;-72
2022/07/31 23:47:48;;;;;;;7.10;6.40;;;;;;;16.49;96.51;96979.36;110102;1247;69306;-70
2022/07/31 23:50:17;;;;;;;5.60;5.00;;;;;;;16.48;96.10;96979.48;110077;1247;69346;-72
2022/07/31 23:52:47;;;;;;;;;;;;;;;16.47;95.39;96977.98;110111;1247;58942;-71
2022/07/31 23:55:16;;;;;;;5.80;5.20;;;;;;;16.47;95.46;96978.88;109991;1247;58951;-71
2022/07/31 23:57:46;;;;;;;6.00;4.40;;;;;;;16.46;94.22;96975.34;110094;1247;70819;-71
